createdAt,value
2022-11-30T00:02:04.743Z,100794.34
2022-11-30T00:04:32.854Z,100828.78
2022-11-30T00:07:03.380Z,100824.28
2022-11-30T00:09:32.115Z,100828.66
2022-11-30T00:12:00.214Z,100826.78
2022-11-30T00:14:28.416Z,100800.41
2022-11-30T00:16:56.714Z,100799.53
2022-11-30T00:19:24.749Z,100825.03
2022-11-30T00:21:52.751Z,100786.41
2022-11-30T00:24:22.285Z,100784.69
2022-11-30T00:26:53.401Z,100829.59
2022-11-30T00:29:21.444Z,100800.50
2022-11-30T00:31:49.448Z,100762.78
2022-11-30T00:34:17.505Z,100825.13
2022-11-30T00:36:45.648Z,100808.41
2022-11-30T00:39:13.661Z,100833.09
2022-11-30T00:41:45.724Z,100769.97
2022-11-30T00:44:13.751Z,100740.75
2022-11-30T00:46:41.725Z,100826.91
2022-11-30T00:49:09.711Z,100823.41
2022-11-30T00:51:39.024Z,100829.66
2022-11-30T00:54:07.303Z,100834.91
2022-11-30T00:56:35.318Z,100824.28
2022-11-30T00:59:04.977Z,100827.69
2022-11-30T01:01:33.360Z,100831.38
2022-11-30T01:04:01.282Z,100829.69
2022-11-30T01:06:29.404Z,100826.06
2022-11-30T01:08:57.703Z,100827.72
2022-11-30T01:11:27.896Z,100816.44
2022-11-30T01:13:56.401Z,100828.81
2022-11-30T01:16:29.582Z,100833.25
2022-11-30T01:18:57.956Z,100828.00
2022-11-30T01:21:28.912Z,100835.06
2022-11-30T01:23:57.050Z,100843.84
2022-11-30T01:26:25.809Z,100807.72
2022-11-30T01:28:54.858Z,100777.84
2022-11-30T01:31:25.375Z,100754.81
2022-11-30T01:33:55.394Z,100833.84
2022-11-30T01:36:25.526Z,100820.59
2022-11-30T01:38:54.641Z,100833.84
2022-11-30T01:41:24.661Z,100839.25
2022-11-30T01:43:54.258Z,100837.66
2022-11-30T01:46:37.027Z,100820.06
2022-11-30T01:49:15.494Z,100838.56
2022-11-30T01:51:47.781Z,100840.31
2022-11-30T01:54:19.717Z,100761.91
2022-11-30T01:56:52.007Z,100840.25
2022-11-30T01:59:25.594Z,100829.72
2022-11-30T02:01:56.200Z,100840.25
2022-11-30T02:04:28.719Z,100841.13
2022-11-30T02:06:58.286Z,100827.94
2022-11-30T02:09:28.160Z,100842.06
2022-11-30T02:11:58.188Z,100748.72
2022-11-30T02:14:33.765Z,100812.00
2022-11-30T02:17:15.526Z,100840.06
2022-11-30T02:20:17.372Z,100826.94
2022-11-30T02:23:04.558Z,100842.78
2022-11-30T02:25:44.493Z,100845.66
2022-11-30T02:28:24.674Z,100838.38
2022-11-30T02:30:55.264Z,100840.16
2022-11-30T02:33:28.893Z,100850.84
2022-11-30T02:35:58.242Z,100803.28
2022-11-30T02:38:28.593Z,100806.09
2022-11-30T02:40:56.930Z,100843.94
2022-11-30T02:43:28.599Z,100843.13
2022-11-30T02:46:04.149Z,100808.75
2022-11-30T02:48:40.213Z,100822.00
2022-11-30T02:51:11.853Z,100842.97
2022-11-30T02:53:40.308Z,100812.94
2022-11-30T02:56:08.833Z,100848.19
2022-11-30T02:58:37.106Z,100850.91
2022-11-30T03:01:09.492Z,100800.75
2022-11-30T03:03:37.984Z,100742.75
2022-11-30T03:06:06.249Z,100843.13
2022-11-30T03:08:34.301Z,100858.84
2022-11-30T03:11:03.081Z,100837.66
2022-11-30T03:13:31.868Z,100850.00
2022-11-30T03:16:00.055Z,100862.25
2022-11-30T03:18:29.528Z,100828.00
2022-11-30T03:20:58.512Z,100855.13
2022-11-30T03:23:26.797Z,100845.34
2022-11-30T03:25:58.858Z,100863.81
2022-11-30T03:28:27.000Z,100865.66
2022-11-30T03:30:55.699Z,100852.22
2022-11-30T03:33:23.686Z,100865.50
2022-11-30T03:36:02.347Z,100865.56
2022-11-30T03:38:30.497Z,100824.13
2022-11-30T03:41:02.709Z,100864.75
2022-11-30T03:43:30.950Z,100810.25
2022-11-30T03:45:59.021Z,100841.91
2022-11-30T03:48:27.548Z,100860.38
2022-11-30T03:50:56.000Z,100861.00
2022-11-30T03:53:27.098Z,100866.47
2022-11-30T03:55:56.658Z,100872.69
2022-11-30T03:58:25.739Z,100833.06
2022-11-30T04:01:00.843Z,100856.69
2022-11-30T04:03:29.553Z,100869.06
2022-11-30T04:05:57.658Z,100867.28
2022-11-30T04:08:27.628Z,100870.94
2022-11-30T04:10:58.160Z,100870.00
2022-11-30T04:13:28.273Z,100870.94
2022-11-30T04:15:57.545Z,100830.44
2022-11-30T04:18:27.493Z,100858.69
2022-11-30T04:20:57.305Z,100866.69
2022-11-30T04:23:30.397Z,100885.22
2022-11-30T04:25:59.118Z,100784.84
2022-11-30T04:28:27.028Z,100890.50
2022-11-30T04:30:55.703Z,100878.03
2022-11-30T04:33:23.928Z,100879.09
2022-11-30T04:35:55.256Z,100884.28
2022-11-30T04:38:23.962Z,100886.81
2022-11-30T04:40:53.800Z,100885.16
2022-11-30T04:43:22.522Z,100886.09
2022-11-30T04:45:50.941Z,100884.22
2022-11-30T04:48:20.005Z,100892.34
2022-11-30T04:50:48.075Z,100881.66
2022-11-30T04:53:18.521Z,100888.78
2022-11-30T04:55:46.583Z,100830.66
2022-11-30T04:58:16.053Z,100885.25
2022-11-30T05:00:44.065Z,100886.94
2022-11-30T05:03:12.196Z,100870.31
2022-11-30T05:05:40.363Z,100886.09
2022-11-30T05:08:08.341Z,100886.97
2022-11-30T05:10:36.450Z,100884.41
2022-11-30T05:13:04.407Z,100884.44
2022-11-30T05:15:34.283Z,100884.53
2022-11-30T05:18:03.321Z,100900.69
2022-11-30T05:20:31.349Z,100908.50
2022-11-30T05:22:59.499Z,100904.03
2022-11-30T05:25:27.565Z,100912.13
2022-11-30T05:27:55.523Z,100872.50
2022-11-30T05:30:23.623Z,100903.38
2022-11-30T05:32:54.258Z,100915.72
2022-11-30T05:35:22.286Z,100913.91
2022-11-30T05:37:50.504Z,100900.81
2022-11-30T05:40:18.863Z,100917.56
2022-11-30T05:42:46.962Z,100915.84
2022-11-30T05:45:15.288Z,100916.78
2022-11-30T05:47:43.408Z,100924.69
2022-11-30T05:50:12.984Z,100921.03
2022-11-30T05:52:40.961Z,100911.56
2022-11-30T05:55:09.440Z,100921.28
2022-11-30T05:57:37.997Z,100912.41
2022-11-30T06:00:07.303Z,100921.28
2022-11-30T06:02:42.404Z,100926.63
2022-11-30T06:05:12.212Z,100930.09
2022-11-30T06:07:40.395Z,100892.22
2022-11-30T06:10:09.626Z,100929.41
2022-11-30T06:12:37.638Z,100924.88
2022-11-30T06:15:06.499Z,100932.06
2022-11-30T06:17:37.617Z,100934.00
2022-11-30T06:20:06.259Z,100936.66
2022-11-30T06:22:35.763Z,100924.25
2022-11-30T06:25:04.350Z,100936.47
2022-11-30T06:27:32.518Z,100941.69
2022-11-30T06:30:01.613Z,100939.81
2022-11-30T06:32:29.707Z,100932.94
2022-11-30T06:34:57.872Z,100942.69
2022-11-30T06:37:25.738Z,100954.28
2022-11-30T06:40:10.500Z,100951.59
2022-11-30T06:42:39.236Z,100953.44
2022-11-30T06:45:09.043Z,100952.59
2022-11-30T06:47:37.100Z,100942.91
2022-11-30T06:50:06.159Z,100955.25
2022-11-30T06:52:34.292Z,100964.19
2022-11-30T06:55:04.260Z,100964.94
2022-11-30T06:57:32.424Z,100971.88
2022-11-30T07:00:00.571Z,100941.22
2022-11-30T07:02:28.753Z,100969.50
2022-11-30T07:04:56.779Z,100967.88
2022-11-30T07:07:24.853Z,100969.78
2022-11-30T07:09:53.293Z,100965.31
2022-11-30T07:12:22.903Z,100935.31
2022-11-30T07:14:52.790Z,100976.63
2022-11-30T07:17:21.074Z,100981.91
2022-11-30T07:19:49.642Z,100980.50
2022-11-30T07:22:17.589Z,100985.81
2022-11-30T07:25:02.959Z,100983.31
2022-11-30T07:27:32.389Z,100966.41
2022-11-30T07:30:00.358Z,100983.38
2022-11-30T07:32:28.366Z,100945.53
2022-11-30T07:34:56.480Z,100980.66
2022-11-30T07:37:24.413Z,100985.88
2022-11-30T07:39:52.351Z,100985.81
2022-11-30T07:42:20.393Z,101000.94
2022-11-30T07:44:56.939Z,100984.06
2022-11-30T07:47:26.703Z,100993.72
2022-11-30T07:49:54.705Z,100988.47
2022-11-30T07:52:22.752Z,101004.31
2022-11-30T07:54:51.066Z,100994.94
2022-11-30T07:57:19.202Z,100950.00
2022-11-30T07:59:47.799Z,101007.19
2022-11-30T08:02:17.344Z,101003.56
2022-11-30T08:04:48.684Z,100989.50
2022-11-30T08:07:17.429Z,101002.78
2022-11-30T08:09:46.176Z,101020.75
2022-11-30T08:12:14.220Z,100996.88
2022-11-30T08:15:17.529Z,101017.97
2022-11-30T08:17:31.741Z,101010.75
2022-11-30T08:20:00.117Z,101014.25
2022-11-30T08:22:28.216Z,101019.72
2022-11-30T08:24:56.299Z,101016.03
2022-11-30T08:27:24.347Z,101000.06
2022-11-30T08:29:52.816Z,101002.09
2022-11-30T08:32:21.147Z,101020.50
2022-11-30T08:34:50.760Z,101028.50
2022-11-30T08:37:18.749Z,101025.84
2022-11-30T08:39:46.743Z,101024.91
2022-11-30T08:42:14.740Z,101019.63
2022-11-30T08:44:43.005Z,101030.25
2022-11-30T08:47:10.983Z,101046.31
2022-11-30T08:49:39.117Z,101043.59
2022-11-30T08:52:17.664Z,101034.66
2022-11-30T08:54:47.807Z,101038.31
2022-11-30T08:57:17.416Z,101035.72
2022-11-30T08:59:45.577Z,101043.69
2022-11-30T09:02:17.476Z,101034.03
2022-11-30T09:04:47.521Z,101052.56
2022-11-30T09:07:17.760Z,101022.59
2022-11-30T09:09:45.968Z,101038.44
2022-11-30T09:12:14.063Z,101060.41
2022-11-30T09:14:42.705Z,101057.09
2022-11-30T09:17:10.783Z,101065.88
2022-11-30T09:19:38.734Z,101060.50
2022-11-30T09:22:06.836Z,100998.00
2022-11-30T09:24:38.200Z,101059.50
2022-11-30T09:27:06.247Z,101064.72
2022-11-30T09:29:34.218Z,101066.47
2022-11-30T09:32:02.361Z,101065.53
2022-11-30T09:34:30.410Z,100998.41
2022-11-30T09:36:58.597Z,101061.91
2022-11-30T09:39:26.752Z,101064.53
2022-11-30T09:42:17.263Z,101059.19
2022-11-30T09:44:53.035Z,101035.31
2022-11-30T09:47:39.157Z,101070.97
2022-11-30T09:50:15.610Z,101078.19
2022-11-30T09:52:48.403Z,101078.13
2022-11-30T09:55:24.134Z,101031.25
2022-11-30T09:57:59.693Z,101082.69
2022-11-30T10:00:29.967Z,100958.31
2022-11-30T10:03:03.226Z,101075.59
2022-11-30T10:05:46.902Z,101075.63
2022-11-30T10:08:44.837Z,101071.94
2022-11-30T10:11:32.908Z,101064.88
2022-11-30T10:14:19.222Z,101080.66
2022-11-30T10:16:59.136Z,101043.69
2022-11-30T10:19:41.673Z,101075.31
2022-11-30T10:22:20.669Z,100991.50
2022-11-30T10:25:03.881Z,101072.53
2022-11-30T10:27:49.605Z,101067.94
2022-11-30T10:30:22.463Z,101023.69
2022-11-30T10:32:54.062Z,101059.97
2022-11-30T10:35:31.409Z,101066.00
2022-11-30T10:38:04.500Z,101040.66
2022-11-30T10:40:39.706Z,101063.50
2022-11-30T10:43:18.112Z,101007.13
2022-11-30T10:45:49.358Z,101061.69
2022-11-30T10:48:21.932Z,101070.56
2022-11-30T10:50:50.084Z,101051.16
2022-11-30T10:53:18.227Z,101065.28
2022-11-30T10:55:55.050Z,101066.25
2022-11-30T10:58:28.706Z,101064.38
2022-11-30T11:01:03.715Z,101068.72
2022-11-30T11:03:32.595Z,101052.06
2022-11-30T11:06:07.735Z,101069.75
2022-11-30T11:08:36.456Z,101059.34
2022-11-30T11:11:06.190Z,101075.34
2022-11-30T11:13:39.907Z,101068.25
2022-11-30T11:16:11.176Z,101072.91
2022-11-30T11:18:53.553Z,101066.56
2022-11-30T11:21:23.855Z,101070.19
2022-11-30T11:23:52.969Z,101074.56
2022-11-30T11:26:24.255Z,101077.13
2022-11-30T11:28:54.137Z,101067.78
2022-11-30T11:31:44.150Z,101086.25
2022-11-30T11:34:25.621Z,101082.56
2022-11-30T11:37:06.304Z,101086.28
2022-11-30T11:39:34.639Z,101055.47
2022-11-30T11:42:02.792Z,101049.25
2022-11-30T11:44:31.818Z,101088.78
2022-11-30T11:47:03.591Z,101087.78
2022-11-30T11:49:34.123Z,100995.16
2022-11-30T11:52:04.540Z,101077.22
2022-11-30T11:54:36.779Z,101088.78
2022-11-30T11:57:08.498Z,101083.69
2022-11-30T11:59:41.975Z,101084.69
2022-11-30T12:02:27.266Z,101075.91
2022-11-30T12:04:59.412Z,101094.44
2022-11-30T12:07:33.365Z,101094.59
2022-11-30T12:10:50.183Z,101080.31
2022-11-30T12:13:13.105Z,101093.59
2022-11-30T12:15:52.826Z,101021.03
2022-11-30T12:18:26.061Z,101057.16
2022-11-30T12:20:59.355Z,101096.88
2022-11-30T12:23:45.947Z,101090.53
2022-11-30T12:26:22.751Z,101057.34
2022-11-30T12:29:04.246Z,101080.41
2022-11-30T12:31:42.596Z,101098.78
2022-11-30T12:34:20.089Z,101082.94
2022-11-30T12:36:57.926Z,101096.31
2022-11-30T12:39:33.552Z,101102.44
2022-11-30T12:42:08.103Z,101100.66
2022-11-30T12:44:47.020Z,101099.72
2022-11-30T12:47:29.832Z,101093.47
2022-11-30T12:50:10.116Z,101100.41
2022-11-30T12:52:43.795Z,101105.91
2022-11-30T12:55:26.430Z,101099.81
2022-11-30T12:58:01.014Z,101102.50
2022-11-30T13:00:40.801Z,101103.50
2022-11-30T13:03:36.543Z,101109.53
2022-11-30T13:06:13.154Z,101064.34
2022-11-30T13:08:49.535Z,101103.88
2022-11-30T13:11:22.595Z,101079.19
2022-11-30T13:13:55.621Z,101103.78
2022-11-30T13:16:25.654Z,101108.31
2022-11-30T13:19:01.201Z,101110.94
2022-11-30T13:21:37.661Z,101096.84
2022-11-30T13:24:12.934Z,101107.34
2022-11-30T13:26:48.460Z,101082.59
2022-11-30T13:29:32.845Z,101118.09
2022-11-30T13:32:22.256Z,101109.19
2022-11-30T13:35:35.313Z,101118.97
2022-11-30T13:38:35.161Z,101112.69
2022-11-30T13:41:00.258Z,101032.41
2022-11-30T13:43:32.410Z,101091.63
2022-11-30T13:46:16.089Z,101119.97
2022-11-30T13:48:45.669Z,101111.94
2022-11-30T13:51:35.809Z,101116.34
2022-11-30T13:54:37.135Z,101111.91
2022-11-30T13:57:18.111Z,101119.03
2022-11-30T13:59:49.354Z,101121.63
2022-11-30T14:02:53.747Z,101114.53
2022-11-30T14:05:35.888Z,101117.97
2022-11-30T14:08:32.372Z,101130.47
2022-11-30T14:11:38.108Z,101122.69
2022-11-30T14:14:45.648Z,101121.72
2022-11-30T14:17:27.601Z,101125.34
2022-11-30T14:20:00.328Z,101126.19
2022-11-30T14:22:30.568Z,101131.59
2022-11-30T14:24:58.814Z,101132.38
2022-11-30T14:27:30.032Z,101133.25
2022-11-30T14:30:04.493Z,101141.28
2022-11-30T14:32:39.081Z,101136.84
2022-11-30T14:35:11.587Z,101113.97
2022-11-30T14:37:46.972Z,101141.25
2022-11-30T14:40:19.247Z,101140.38
2022-11-30T14:42:49.935Z,101137.81
2022-11-30T14:45:25.086Z,101138.72
2022-11-30T14:47:56.133Z,101148.47
2022-11-30T14:50:26.625Z,101151.13
2022-11-30T14:53:07.363Z,101152.03
2022-11-30T14:55:44.964Z,101144.97
2022-11-30T14:58:23.492Z,101152.09
2022-11-30T15:00:53.736Z,101153.81
2022-11-30T15:03:25.567Z,101156.44
2022-11-30T15:05:56.560Z,101040.81
2022-11-30T15:08:34.359Z,101160.00
2022-11-30T15:11:07.143Z,101149.41
2022-11-30T15:13:40.511Z,101143.31
2022-11-30T15:16:19.647Z,101165.56
2022-11-30T15:18:47.811Z,101161.88
2022-11-30T15:21:20.157Z,101105.34
2022-11-30T15:23:51.473Z,101120.41
2022-11-30T15:26:25.710Z,101168.25
2022-11-30T15:28:59.729Z,101164.94
2022-11-30T15:31:36.773Z,101156.97
2022-11-30T15:34:05.809Z,101172.09
2022-11-30T15:36:35.950Z,101166.63
2022-11-30T15:39:07.557Z,101175.53
2022-11-30T15:41:37.105Z,101175.47
2022-11-30T15:44:05.218Z,101165.81
2022-11-30T15:46:42.759Z,101155.13
2022-11-30T15:49:19.093Z,101159.47
2022-11-30T15:51:54.479Z,101163.81
2022-11-30T15:54:43.700Z,101169.00
2022-11-30T15:57:12.596Z,101168.16
2022-11-30T15:59:41.497Z,101169.91
2022-11-30T16:02:26.932Z,101177.06
2022-11-30T16:05:24.437Z,101169.91
2022-11-30T16:07:55.232Z,101169.84
2022-11-30T16:10:25.669Z,101170.69
2022-11-30T16:12:54.209Z,101176.97
2022-11-30T16:15:24.076Z,101172.53
2022-11-30T16:17:55.071Z,101163.59
2022-11-30T16:20:24.136Z,101176.13
2022-11-30T16:22:52.279Z,101080.72
2022-11-30T16:25:22.720Z,101182.22
2022-11-30T16:27:51.473Z,101171.63
2022-11-30T16:30:22.509Z,101053.25
2022-11-30T16:32:51.067Z,101190.19
2022-11-30T16:35:24.415Z,101188.44
2022-11-30T16:37:52.897Z,101171.72
2022-11-30T16:40:21.581Z,101132.84
2022-11-30T16:42:51.541Z,101202.59
2022-11-30T16:45:22.210Z,101201.03
2022-11-30T16:47:50.984Z,101202.88
2022-11-30T16:50:20.451Z,101204.63
2022-11-30T16:52:49.957Z,101202.81
2022-11-30T16:55:20.844Z,101198.47
2022-11-30T16:57:50.119Z,101202.91
2022-11-30T17:00:20.824Z,101187.03
2022-11-30T17:03:00.866Z,101212.59
2022-11-30T17:05:30.476Z,101209.16
2022-11-30T17:08:00.200Z,101211.06
2022-11-30T17:10:28.534Z,101215.44
2022-11-30T17:12:56.810Z,101219.81
2022-11-30T17:15:25.535Z,101212.69
2022-11-30T17:17:57.600Z,101223.31
2022-11-30T17:20:26.002Z,101222.34
2022-11-30T17:22:54.475Z,101232.13
2022-11-30T17:25:25.165Z,101233.88
2022-11-30T17:27:53.610Z,101231.44
2022-11-30T17:30:23.909Z,101231.41
2022-11-30T17:32:52.224Z,101238.38
2022-11-30T17:35:20.662Z,101241.88
2022-11-30T17:37:48.700Z,101246.34
2022-11-30T17:40:17.038Z,101247.28
2022-11-30T17:42:46.409Z,101235.66
2022-11-30T17:45:14.417Z,101246.34
2022-11-30T17:47:42.374Z,101251.66
2022-11-30T17:50:11.516Z,101240.06
2022-11-30T17:52:39.437Z,101210.91
2022-11-30T17:55:08.490Z,101245.44
2022-11-30T17:57:38.241Z,101245.50
2022-11-30T18:00:09.653Z,101242.75
2022-11-30T18:02:37.685Z,101244.53
2022-11-30T18:05:06.441Z,101246.38
2022-11-30T18:07:34.536Z,101241.94
2022-11-30T18:10:02.701Z,101256.09
2022-11-30T18:12:30.637Z,101259.63
2022-11-30T18:14:59.079Z,101264.00
2022-11-30T18:17:28.491Z,101247.25
2022-11-30T18:19:56.439Z,101260.44
2022-11-30T18:22:24.431Z,101260.47
2022-11-30T18:24:52.454Z,101261.34
2022-11-30T18:27:20.437Z,101266.72
2022-11-30T18:29:48.438Z,101254.34
2022-11-30T18:32:16.384Z,101266.78
2022-11-30T18:34:49.818Z,101261.63
2022-11-30T18:37:18.154Z,101272.19
2022-11-30T18:39:46.134Z,101273.09
2022-11-30T18:42:14.193Z,101277.59
2022-11-30T18:44:42.375Z,101274.06
2022-11-30T18:47:10.446Z,101277.66
2022-11-30T18:49:38.364Z,101280.25
2022-11-30T18:52:07.802Z,101281.13
2022-11-30T18:54:36.282Z,101279.38
2022-11-30T18:57:04.285Z,101247.50
2022-11-30T18:59:32.482Z,101278.44
2022-11-30T19:02:00.614Z,101288.97
2022-11-30T19:04:28.621Z,101288.09
2022-11-30T19:06:56.642Z,101181.03
2022-11-30T19:09:26.149Z,101272.19
2022-11-30T19:11:58.013Z,101297.88
2022-11-30T19:14:25.942Z,101299.63
2022-11-30T19:16:54.017Z,101250.06
2022-11-30T19:19:22.742Z,101261.56
2022-11-30T19:21:50.725Z,101288.97
2022-11-30T19:24:18.703Z,101279.25
2022-11-30T19:26:48.409Z,101301.34
2022-11-30T19:29:16.341Z,101290.72
2022-11-30T19:31:44.309Z,101288.91
2022-11-30T19:34:13.443Z,101225.25
2022-11-30T19:36:41.854Z,101292.56
2022-11-30T19:39:11.285Z,101308.44
2022-11-30T19:41:39.244Z,101297.84
2022-11-30T19:44:13.635Z,101281.06
2022-11-30T19:46:41.953Z,101302.34
2022-11-30T19:49:11.267Z,101295.25
2022-11-30T19:51:39.288Z,101320.03
2022-11-30T19:54:07.529Z,101320.03
2022-11-30T19:56:35.826Z,101320.06
2022-11-30T19:59:05.511Z,101315.63
2022-11-30T20:01:35.513Z,101303.25
2022-11-30T20:04:04.323Z,101312.19
2022-11-30T20:06:34.029Z,101313.97
2022-11-30T20:09:01.974Z,101323.72
2022-11-30T20:11:30.400Z,101326.31
2022-11-30T20:13:58.705Z,101327.19
2022-11-30T20:16:27.206Z,101320.09
2022-11-30T20:19:00.785Z,101298.91
2022-11-30T20:21:30.744Z,101223.66
2022-11-30T20:24:01.042Z,101322.78
2022-11-30T20:26:30.331Z,101321.88
2022-11-30T20:29:00.395Z,101313.03
2022-11-30T20:31:30.280Z,101317.41
2022-11-30T20:33:59.942Z,101229.81
2022-11-30T20:36:28.063Z,101240.50
2022-11-30T20:38:56.175Z,101151.19
2022-11-30T20:41:25.637Z,101243.19
2022-11-30T20:43:53.985Z,101316.59
2022-11-30T20:46:24.193Z,101329.06
2022-11-30T20:48:52.637Z,101330.81
2022-11-30T20:51:33.217Z,101329.00
2022-11-30T20:54:03.730Z,101269.63
2022-11-30T20:56:31.905Z,101331.63
2022-11-30T20:59:02.625Z,101328.06
2022-11-30T21:01:31.514Z,101328.09
2022-11-30T21:04:00.727Z,101241.34
2022-11-30T21:06:30.995Z,101334.31
2022-11-30T21:08:59.523Z,101289.16
2022-11-30T21:11:28.964Z,101332.53
2022-11-30T21:13:58.530Z,101335.25
2022-11-30T21:16:29.685Z,101329.88
2022-11-30T21:18:59.828Z,101308.63
2022-11-30T21:21:31.210Z,101331.69
2022-11-30T21:24:01.170Z,101317.47
2022-11-30T21:26:31.464Z,101335.16
2022-11-30T21:29:00.898Z,101334.31
2022-11-30T21:31:29.569Z,101253.75
2022-11-30T21:33:57.565Z,101267.03
2022-11-30T21:36:25.823Z,101339.59
2022-11-30T21:39:05.720Z,101332.59
2022-11-30T21:41:35.837Z,101336.97
2022-11-30T21:44:04.338Z,101331.66
2022-11-30T21:46:32.695Z,101309.59
2022-11-30T21:49:01.443Z,101329.94
2022-11-30T21:51:31.734Z,101329.97
2022-11-30T21:54:04.225Z,101306.06
2022-11-30T21:56:34.935Z,101331.72
2022-11-30T21:59:04.922Z,101338.81
2022-11-30T22:01:34.985Z,101313.97
2022-11-30T22:04:04.869Z,101342.38
2022-11-30T22:06:35.795Z,101337.91
2022-11-30T22:09:08.743Z,101336.13
2022-11-30T22:11:38.996Z,101330.81
2022-11-30T22:14:07.386Z,101342.38
2022-11-30T22:16:36.520Z,101281.28
2022-11-30T22:19:06.706Z,101306.94
2022-11-30T22:21:35.259Z,101346.78
2022-11-30T22:24:06.568Z,101343.22
2022-11-30T22:26:36.236Z,101341.44
2022-11-30T22:29:06.539Z,101341.50
2022-11-30T22:31:35.486Z,101343.22
2022-11-30T22:34:04.479Z,101335.22
2022-11-30T22:36:34.101Z,101339.63
2022-11-30T22:39:03.995Z,101342.34
2022-11-30T22:41:33.997Z,101334.34
2022-11-30T22:44:02.772Z,101321.94
2022-11-30T22:46:33.600Z,101333.47
2022-11-30T22:49:02.443Z,101336.13
2022-11-30T22:51:32.451Z,101336.16
2022-11-30T22:54:01.587Z,101341.50
2022-11-30T22:56:36.462Z,101334.38
2022-11-30T22:59:06.604Z,101334.38
2022-11-30T23:01:36.548Z,101307.81
2022-11-30T23:04:07.220Z,101337.03
2022-11-30T23:06:36.184Z,101275.06
2022-11-30T23:09:06.420Z,101305.19
2022-11-30T23:11:36.825Z,101278.66
2022-11-30T23:14:08.444Z,101330.81
2022-11-30T23:16:37.808Z,101331.72
2022-11-30T23:19:07.015Z,101322.81
2022-11-30T23:21:41.351Z,101326.44
2022-11-30T23:24:13.962Z,101315.78
2022-11-30T23:26:43.877Z,101323.75
2022-11-30T23:29:13.815Z,101278.59
2022-11-30T23:31:43.951Z,101317.56
2022-11-30T23:34:18.037Z,101290.09
2022-11-30T23:36:46.551Z,101299.84
2022-11-30T23:39:16.683Z,101278.59
2022-11-30T23:41:46.291Z,101207.88
2022-11-30T23:44:14.382Z,101329.97
2022-11-30T23:46:42.759Z,101326.41
2022-11-30T23:49:13.050Z,101329.97
2022-11-30T23:51:40.808Z,101335.25
2022-11-30T23:54:11.567Z,101322.84
2022-11-30T23:56:39.703Z,101275.94
2022-11-30T23:59:09.022Z,101314.88
